Time;durP1;ratioP1;P1;durP2;ratioP2;P2;SDS_P1;SDS_P2;PMS_P1;PMS_P2;Temp;Humidity;BMP_temperature;BMP_pressure;BME280_temperature;BME280_humidity;BME280_pressure;Samples;Min_cycle;Max_cycle;Signal;HPM_P1;HPM_P2
2023/07/09 00:00:52;;;;;;;12.77;3.60;;;;;;;;;;5046519;28;20195;-64
2023/07/09 00:03:20;;;;;;;3.70;3.17;;;;;;;;;;5046366;28;20244;-64
2023/07/09 00:05:48;;;;;;;4.43;3.03;;;;;;;;;;5046620;28;20256;-63
2023/07/09 00:08:22;;;;;;;4.65;2.90;;;;;;;;;;5046191;28;20642;-64
2023/07/09 00:10:48;;;;;;;3.67;3.25;;;;;;;;;;5045941;28;20339;-63
2023/07/09 00:13:15;;;;;;;3.45;3.00;;;;;;;;;;5047067;28;20207;-65
2023/07/09 00:15:41;;;;;;;5.47;3.05;;;;;;;;;;5046013;28;20214;-63
2023/07/09 00:18:08;;;;;;;3.22;2.95;;;;;;;;;;5046667;28;20233;-63
2023/07/09 00:20:36;;;;;;;3.03;2.83;;;;;;;;;;5045897;28;20230;-63
2023/07/09 00:23:04;;;;;;;3.20;2.95;;;;;;;;;;5046441;28;20237;-63
2023/07/09 00:25:31;;;;;;;6.45;2.80;;;;;;;;;;5045801;28;20214;-63
2023/07/09 00:27:57;;;;;;;3.65;2.78;;;;;;;;;;5046255;28;20680;-63
2023/07/09 00:30:24;;;;;;;5.25;2.83;;;;;;;;;;5046113;28;20223;-64
2023/07/09 00:32:51;;;;;;;3.25;2.95;;;;;;;;;;5046045;28;20203;-64
2023/07/09 00:35:18;;;;;;;3.65;2.90;;;;;;;;;;5046345;28;20208;-63
2023/07/09 00:37:47;;;;;;;8.50;2.78;;;;;;;;;;5046514;28;20261;-64
2023/07/09 00:40:18;;;;;;;3.15;2.75;;;;;;;;;;5045658;28;20246;-62
2023/07/09 00:42:45;;;;;;;2.88;2.67;;;;;;;;;;5045289;28;20199;-63
2023/07/09 00:45:18;;;;;;;3.03;2.72;;;;;;;;;;5045573;28;20249;-63
2023/07/09 00:47:45;;;;;;;6.05;2.78;;;;;;;;;;5044977;28;20253;-62
2023/07/09 00:50:16;;;;;;;6.38;2.92;;;;;;;;;;5045655;28;20713;-63
2023/07/09 00:52:47;;;;;;;3.88;3.38;;;;;;;;;;5046093;28;20234;-64
2023/07/09 00:55:17;;;;;;;5.18;2.80;;;;;;;;;;5045526;28;20203;-63
2023/07/09 00:57:44;;;;;;;4.18;2.65;;;;;;;;;;5045989;28;20658;-63
2023/07/09 01:00:14;;;;;;;6.55;3.95;;;;;;;;;;5049640;28;20596;-62
2023/07/09 01:02:43;;;;;;;3.17;2.95;;;;;;;;;;5047744;28;20226;-63
2023/07/09 01:05:11;;;;;;;3.00;2.70;;;;;;;;;;5047946;28;20203;-64
2023/07/09 01:07:38;;;;;;;5.47;2.55;;;;;;;;;;5047397;28;20218;-63
2023/07/09 01:10:04;;;;;;;4.60;3.15;;;;;;;;;;5047663;28;20227;-63
2023/07/09 01:12:32;;;;;;;9.15;2.67;;;;;;;;;;5047080;28;20219;-64
2023/07/09 01:14:59;;;;;;;3.75;2.92;;;;;;;;;;5047074;28;20199;-63
2023/07/09 01:17:27;;;;;;;3.28;2.58;;;;;;;;;;5047720;28;20302;-62
2023/07/09 01:19:54;;;;;;;3.33;3.13;;;;;;;;;;5049047;28;20246;-64
2023/07/09 01:22:22;;;;;;;2.67;2.42;;;;;;;;;;5048695;28;20288;-64
2023/07/09 01:25:01;;;;;;;2.97;2.67;;;;;;;;;;5049574;28;20640;-64
2023/07/09 01:27:28;;;;;;;2.92;2.75;;;;;;;;;;5048924;28;20194;-63
2023/07/09 01:29:55;;;;;;;4.47;2.53;;;;;;;;;;5049155;28;20241;-63
2023/07/09 01:32:22;;;;;;;5.55;2.95;;;;;;;;;;5048717;28;20862;-64
2023/07/09 01:34:50;;;;;;;6.32;2.88;;;;;;;;;;5048733;28;20294;-64
2023/07/09 01:37:17;;;;;;;3.10;2.80;;;;;;;;;;5046580;28;20636;-64
2023/07/09 01:39:44;;;;;;;3.35;3.05;;;;;;;;;;5048804;28;20668;-63
2023/07/09 01:42:12;;;;;;;5.97;3.42;;;;;;;;;;5048374;28;20249;-64
2023/07/09 01:44:40;;;;;;;2.88;2.67;;;;;;;;;;5047963;28;20661;-63
2023/07/09 01:47:06;;;;;;;2.90;2.65;;;;;;;;;;5047976;28;20211;-63
2023/07/09 01:49:33;;;;;;;5.25;2.88;;;;;;;;;;5047937;28;20651;-63
2023/07/09 01:52:01;;;;;;;3.13;2.92;;;;;;;;;;5048127;28;20316;-64
2023/07/09 01:54:28;;;;;;;4.80;3.10;;;;;;;;;;5048254;28;20203;-64
2023/07/09 01:57:12;;;;;;;7.40;3.17;;;;;;;;;;5048548;28;20202;-64
2023/07/09 01:59:41;;;;;;;3.85;3.17;;;;;;;;;;5047781;28;20249;-64
2023/07/09 02:02:07;;;;;;;5.25;2.83;;;;;;;;;;5047441;28;20290;-64
2023/07/09 02:04:33;;;;;;;3.42;3.22;;;;;;;;;;5047918;28;20234;-65
2023/07/09 02:07:00;;;;;;;4.90;3.25;;;;;;;;;;5047631;28;20206;-65
2023/07/09 02:09:26;;;;;;;3.30;3.03;;;;;;;;;;5047207;28;20563;-65
2023/07/09 02:11:53;;;;;;;11.07;3.53;;;;;;;;;;5047672;28;20716;-65
2023/07/09 02:14:21;;;;;;;6.55;3.25;;;;;;;;;;5047899;28;20280;-64
2023/07/09 02:16:47;;;;;;;3.40;2.97;;;;;;;;;;5047767;28;20199;-63
2023/07/09 02:19:13;;;;;;;5.50;2.80;;;;;;;;;;5047911;28;20230;-65
2023/07/09 02:21:40;;;;;;;5.05;3.10;;;;;;;;;;5047545;28;20250;-64
2023/07/09 02:24:06;;;;;;;4.43;3.13;;;;;;;;;;5047492;28;20675;-63
2023/07/09 02:26:33;;;;;;;4.70;3.28;;;;;;;;;;5047604;28;20207;-63
2023/07/09 02:28:59;;;;;;;3.67;3.38;;;;;;;;;;5047134;28;20215;-63
2023/07/09 02:31:29;;;;;;;3.83;3.47;;;;;;;;;;5048249;28;20314;-64
2023/07/09 02:33:56;;;;;;;3.88;3.53;;;;;;;;;;5047334;28;20210;-65
2023/07/09 02:36:22;;;;;;;2.65;2.55;;;;;;;;;;5047155;28;20284;-64
2023/07/09 02:38:49;;;;;;;6.72;3.40;;;;;;;;;;5046943;28;20203;-63
2023/07/09 02:41:15;;;;;;;6.30;3.40;;;;;;;;;;5046568;28;20231;-63
2023/07/09 02:43:41;;;;;;;7.15;3.20;;;;;;;;;;5046201;28;20776;-64
2023/07/09 02:46:08;;;;;;;3.47;3.28;;;;;;;;;;5046113;28;20238;-63
2023/07/09 02:48:36;;;;;;;5.70;3.15;;;;;;;;;;5045981;28;20696;-64
2023/07/09 02:51:02;;;;;;;4.88;3.40;;;;;;;;;;5045637;28;20659;-64
2023/07/09 02:53:29;;;;;;;5.60;3.45;;;;;;;;;;5046811;28;20562;-64
2023/07/09 02:55:55;;;;;;;3.88;3.65;;;;;;;;;;5047187;28;20228;-64
2023/07/09 02:58:21;;;;;;;7.50;3.40;;;;;;;;;;5046749;28;20211;-62
2023/07/09 03:00:52;;;;;;;5.72;3.70;;;;;;;;;;5046768;28;20203;-63
2023/07/09 03:03:19;;;;;;;5.35;3.35;;;;;;;;;;5045837;28;20191;-63
2023/07/09 03:05:47;;;;;;;4.60;3.47;;;;;;;;;;5045852;28;20227;-64
2023/07/09 03:08:14;;;;;;;4.90;4.03;;;;;;;;;;5045883;28;20696;-63
2023/07/09 03:10:40;;;;;;;9.55;4.00;;;;;;;;;;5046053;28;20201;-64
2023/07/09 03:13:07;;;;;;;5.30;4.90;;;;;;;;;;5045418;28;20578;-62
2023/07/09 03:15:33;;;;;;;6.28;4.50;;;;;;;;;;5046065;28;20278;-62
2023/07/09 03:18:00;;;;;;;7.10;4.40;;;;;;;;;;5047606;28;20194;-62
2023/07/09 03:20:26;;;;;;;5.35;4.40;;;;;;;;;;5047018;28;20231;-62
2023/07/09 03:22:54;;;;;;;5.07;3.72;;;;;;;;;;5046718;28;20206;-63
2023/07/09 03:25:21;;;;;;;4.63;4.32;;;;;;;;;;5047744;28;20215;-63
2023/07/09 03:27:48;;;;;;;4.95;3.80;;;;;;;;;;5047104;28;20203;-63
2023/07/09 03:30:14;;;;;;;7.80;4.07;;;;;;;;;;5047641;28;20253;-63
2023/07/09 03:32:41;;;;;;;3.58;3.30;;;;;;;;;;5044210;28;20790;-62
2023/07/09 03:35:08;;;;;;;7.50;3.80;;;;;;;;;;5045108;28;20241;-63
2023/07/09 03:37:34;;;;;;;5.15;3.30;;;;;;;;;;5047231;28;20195;-63
2023/07/09 03:40:04;;;;;;;5.07;3.47;;;;;;;;;;5046897;28;20681;-62
2023/07/09 03:42:30;;;;;;;3.65;3.30;;;;;;;;;;5047332;28;20191;-63
2023/07/09 03:44:57;;;;;;;5.00;3.53;;;;;;;;;;5046872;28;20223;-64
2023/07/09 03:47:23;;;;;;;5.47;3.42;;;;;;;;;;5046748;28;20301;-64
2023/07/09 03:49:49;;;;;;;4.47;3.47;;;;;;;;;;5047066;28;20233;-64
2023/07/09 03:52:17;;;;;;;7.85;3.20;;;;;;;;;;5046554;28;20767;-64
2023/07/09 03:54:43;;;;;;;5.05;3.03;;;;;;;;;;5046864;28;20282;-63
2023/07/09 03:57:11;;;;;;;3.78;3.42;;;;;;;;;;5046818;28;20199;-63
2023/07/09 03:59:39;;;;;;;3.40;3.10;;;;;;;;;;5046812;28;20214;-64
2023/07/09 04:02:06;;;;;;;3.78;3.40;;;;;;;;;;5045829;28;20207;-62
2023/07/09 04:04:33;;;;;;;4.40;3.50;;;;;;;;;;5046644;28;20199;-63
2023/07/09 04:06:59;;;;;;;7.20;3.92;;;;;;;;;;5046625;28;20206;-63
2023/07/09 04:09:26;;;;;;;7.90;3.67;;;;;;;;;;5046493;28;20269;-63
2023/07/09 04:11:52;;;;;;;3.47;3.28;;;;;;;;;;5046323;28;20219;-63
2023/07/09 04:14:20;;;;;;;4.68;3.50;;;;;;;;;;5046755;28;20292;-63
2023/07/09 04:16:46;;;;;;;4.68;3.33;;;;;;;;;;5046457;28;20238;-63
2023/07/09 04:19:13;;;;;;;3.67;3.35;;;;;;;;;;5046655;28;20282;-63
2023/07/09 04:21:39;;;;;;;7.82;3.97;;;;;;;;;;5046420;28;20330;-63
2023/07/09 04:24:06;;;;;;;4.07;3.72;;;;;;;;;;5045703;28;20203;-63
2023/07/09 04:26:33;;;;;;;6.53;3.88;;;;;;;;;;5045798;28;20253;-63
2023/07/09 04:28:59;;;;;;;8.82;3.70;;;;;;;;;;5045936;28;20304;-64
2023/07/09 04:31:27;;;;;;;6.57;3.70;;;;;;;;;;5046334;28;20199;-63
2023/07/09 04:33:53;;;;;;;6.88;3.47;;;;;;;;;;5049737;28;20219;-64
2023/07/09 04:36:20;;;;;;;4.57;3.38;;;;;;;;;;5049982;28;20680;-63
2023/07/09 04:38:46;;;;;;;4.40;3.80;;;;;;;;;;5049724;28;20210;-64
2023/07/09 04:41:13;;;;;;;5.70;2.92;;;;;;;;;;5049049;28;20203;-63
2023/07/09 04:43:39;;;;;;;3.83;3.25;;;;;;;;;;5048419;28;20619;-64
2023/07/09 04:46:06;;;;;;;5.47;4.63;;;;;;;;;;5049270;28;20236;-63
2023/07/09 04:48:33;;;;;;;4.90;4.50;;;;;;;;;;5048682;28;20762;-63
2023/07/09 04:51:00;;;;;;;5.65;4.13;;;;;;;;;;5049924;28;20261;-65
2023/07/09 04:53:27;;;;;;;7.13;4.53;;;;;;;;;;5049607;28;20329;-64
2023/07/09 04:55:53;;;;;;;4.80;2.95;;;;;;;;;;5049829;28;20195;-64
2023/07/09 04:58:20;;;;;;;10.63;3.28;;;;;;;;;;5049844;28;20260;-64
2023/07/09 05:00:46;;;;;;;4.05;3.75;;;;;;;;;;5048216;28;20199;-65
2023/07/09 05:03:12;;;;;;;5.97;4.35;;;;;;;;;;5047928;28;20703;-65
2023/07/09 05:05:44;;;;;;;4.43;3.50;;;;;;;;;;5047827;28;20225;-66
2023/07/09 05:08:10;;;;;;;3.65;3.45;;;;;;;;;;5047948;28;20348;-63
2023/07/09 05:10:41;;;;;;;4.20;3.22;;;;;;;;;;5047839;28;20315;-63
2023/07/09 05:13:07;;;;;;;6.50;3.85;;;;;;;;;;5048117;28;20681;-62
2023/07/09 05:15:34;;;;;;;3.65;3.35;;;;;;;;;;5048832;28;20290;-65
2023/07/09 05:18:00;;;;;;;4.03;3.60;;;;;;;;;;5049491;28;20273;-66
2023/07/09 05:20:27;;;;;;;3.85;3.60;;;;;;;;;;5049081;28;20304;-64
2023/07/09 05:22:54;;;;;;;4.38;4.00;;;;;;;;;;5048832;28;20296;-62
2023/07/09 05:25:21;;;;;;;11.43;4.20;;;;;;;;;;5049387;28;20661;-63
2023/07/09 05:27:47;;;;;;;5.00;3.63;;;;;;;;;;5049097;28;20751;-63
2023/07/09 05:30:14;;;;;;;4.65;4.18;;;;;;;;;;5048990;28;20260;-65
2023/07/09 05:32:40;;;;;;;6.50;4.70;;;;;;;;;;5048535;28;20289;-64
2023/07/09 05:35:07;;;;;;;6.22;4.00;;;;;;;;;;5049218;28;20707;-64
2023/07/09 05:37:34;;;;;;;4.97;3.60;;;;;;;;;;5048788;28;20681;-64
2023/07/09 05:40:04;;;;;;;6.45;3.58;;;;;;;;;;5049392;28;20353;-64
2023/07/09 05:42:30;;;;;;;6.15;3.88;;;;;;;;;;5048231;28;20199;-65
2023/07/09 05:44:57;;;;;;;5.00;3.60;;;;;;;;;;5048162;28;20203;-66
2023/07/09 05:47:23;;;;;;;3.55;3.25;;;;;;;;;;5048453;28;20226;-65
2023/07/09 05:49:50;;;;;;;3.58;3.30;;;;;;;;;;5048453;28;20282;-64
2023/07/09 05:52:16;;;;;;;4.20;3.75;;;;;;;;;;5048006;28;20615;-64
2023/07/09 05:54:43;;;;;;;4.63;4.07;;;;;;;;;;5048526;28;20246;-63
2023/07/09 05:57:11;;;;;;;3.53;3.22;;;;;;;;;;5048644;28;20281;-64
2023/07/09 05:59:37;;;;;;;6.93;4.00;;;;;;;;;;5048708;28;20196;-63
2023/07/09 06:02:05;;;;;;;4.80;3.05;;;;;;;23.27;0.00;145869.66;5048287;28;20621;-64
2023/07/09 06:04:31;;;;;;;3.33;3.03;;;;;;;;;;5048378;28;20627;-64
2023/07/09 06:06:58;;;;;;;2.97;2.78;;;;;;;;;;5048121;28;20203;-64
2023/07/09 06:09:24;;;;;;;7.60;3.10;;;;;;;;;;5048295;28;20195;-63
2023/07/09 06:11:52;;;;;;;5.18;3.20;;;;;;;;;;5048512;28;20223;-65
2023/07/09 06:14:20;;;;;;;4.53;3.50;;;;;;;;;;5047670;28;20665;-64
2023/07/09 06:16:46;;;;;;;3.53;3.25;;;;;;;;;;5048222;28;20207;-64
2023/07/09 06:19:13;;;;;;;5.20;3.35;;;;;;;;;;5047741;28;20261;-66
2023/07/09 06:21:39;;;;;;;5.05;2.92;;;;;;;;;;5047884;28;20285;-65
2023/07/09 06:24:07;;;;;;;3.38;2.88;;;;;;;;;;5047746;28;20245;-64
2023/07/09 06:26:33;;;;;;;3.50;3.20;;;;;;;;;;5047880;28;20203;-66
2023/07/09 06:28:59;;;;;;;4.97;2.88;;;;;;;;;;5047801;28;20207;-65
2023/07/09 06:31:27;;;;;;;3.72;2.67;;;;;;;;;;5048155;28;20237;-65
2023/07/09 06:33:54;;;;;;;4.50;3.25;;;;;;;;;;5048001;28;20284;-66
2023/07/09 06:36:21;;;;;;;6.13;2.97;;;;;;;48.46;nan;95561.56;5047986;28;20206;-66
2023/07/09 06:38:48;;;;;;;3.03;2.80;;;;;;;48.98;nan;95542.13;5047613;28;20211;-66
2023/07/09 06:41:15;;;;;;;3.60;3.38;;;;;;;49.46;nan;95536.06;5047755;28;20210;-67
2023/07/09 06:43:42;;;;;;;3.22;2.92;;;;;;;49.76;nan;95557.38;5047343;28;20234;-63
2023/07/09 06:46:12;;;;;;;3.70;3.20;;;;;;;49.66;nan;95541.28;5047931;28;20286;-66
2023/07/09 06:48:40;;;;;;;3.47;3.17;;;;;;;50.17;nan;95551.53;5047361;28;20226;-64
2023/07/09 06:51:07;;;;;;;4.25;3.40;;;;;;;50.35;nan;95551.59;5047984;28;20292;-66
2023/07/09 06:53:34;;;;;;;3.58;3.35;;;;;;;50.80;nan;95540.44;5047272;28;20266;-66
2023/07/09 06:56:01;;;;;;;3.30;3.10;;;;;;;51.22;nan;95539.53;5047552;28;20553;-65
2023/07/09 06:58:28;;;;;;;5.55;2.80;;;;;;;51.15;nan;95539.09;5046912;28;20248;-63
2023/07/09 07:00:56;;;;;;;3.70;3.33;;;;;;;50.98;nan;95536.94;5047728;28;20222;-64
2023/07/09 07:03:23;;;;;;;3.28;3.08;;;;;;;;;;5047044;28;20211;-65
2023/07/09 07:05:54;;;;;;;3.33;3.22;;;;;;;49.80;nan;95536.00;5047396;28;20229;-65
2023/07/09 07:08:22;;;;;;;5.97;3.20;;;;;;;50.36;nan;95533.47;5047531;28;20229;-65
2023/07/09 07:10:50;;;;;;;5.45;3.10;;;;;;;50.55;nan;95541.59;5047000;28;20202;-66
2023/07/09 07:13:17;;;;;;;3.28;3.03;;;;;;;50.88;nan;95528.94;5047237;28;20659;-66
2023/07/09 07:15:49;;;;;;;4.03;3.63;;;;;;;50.79;nan;95526.09;5047399;28;20195;-65
2023/07/09 07:18:16;;;;;;;6.65;3.83;;;;;;;50.91;nan;95534.59;5047117;28;20908;-65
2023/07/09 07:20:44;;;;;;;4.05;3.55;;;;;;;51.06;nan;95530.84;5045552;28;20266;-65
2023/07/09 07:23:12;;;;;;;3.35;3.00;;;;;;;51.37;nan;95525.75;5047077;28;20230;-66
2023/07/09 07:25:39;;;;;;;4.45;3.28;;;;;;;51.45;nan;95516.94;5046463;28;20202;-64
2023/07/09 07:28:06;;;;;;;3.65;2.97;;;;;;;51.13;nan;95525.84;5047003;28;20198;-65
2023/07/09 07:30:33;;;;;;;3.35;3.00;;;;;;;51.14;nan;95526.66;5046249;28;20766;-64
2023/07/09 07:33:00;;;;;;;3.08;2.88;;;;;;;;;;5047024;28;20712;-65
2023/07/09 07:35:26;;;;;;;3.78;3.03;;;;;;;50.39;nan;95516.66;5046719;28;20282;-64
2023/07/09 07:37:53;;;;;;;3.35;3.05;;;;;;;50.12;nan;95538.88;5047194;28;20214;-66
2023/07/09 07:40:22;;;;;;;3.97;3.17;;;;;;;49.89;nan;95504.56;5046129;28;20331;-65
2023/07/09 07:42:48;;;;;;;3.05;2.85;;;;;;;50.19;nan;95506.09;5046680;28;20288;-64
2023/07/09 07:45:15;;;;;;;3.45;3.22;;;;;;;50.01;nan;95510.38;5045918;28;20222;-66
2023/07/09 07:47:42;;;;;;;3.53;3.28;;;;;;;50.16;nan;95515.59;5046798;28;20690;-64
2023/07/09 07:50:09;;;;;;;3.28;3.17;;;;;;;50.11;nan;95518.34;5046634;28;20229;-65
2023/07/09 07:52:37;;;;;;;2.65;2.55;;;;;;;50.51;nan;95506.19;5046280;28;20280;-65
2023/07/09 07:55:03;;;;;;;4.18;3.35;;;;;;;;;;5046486;28;20202;-65
2023/07/09 07:57:32;;;;;;;3.25;3.15;;;;;;;50.48;nan;95497.88;5047020;28;20226;-64
2023/07/09 07:59:58;;;;;;;3.03;2.72;;;;;;;50.43;nan;95512.28;5046024;28;20591;-64
2023/07/09 08:02:25;;;;;;;2.67;2.58;;;;;;;49.87;nan;95504.03;5046876;28;20627;-65
2023/07/09 08:04:52;;;;;;;3.70;3.40;;;;;;;49.67;nan;95505.88;5046417;28;20202;-64
2023/07/09 08:07:19;;;;;;;3.30;3.13;;;;;;;50.24;nan;95498.72;5047700;28;20676;-65
2023/07/09 08:09:47;;;;;;;5.25;3.28;;;;;;;50.51;nan;95495.38;5050005;28;20205;-66
2023/07/09 08:12:15;;;;;;;3.20;3.00;;;;;;;50.05;nan;95506.00;5050550;28;20194;-64
2023/07/09 08:14:46;;;;;;;3.85;2.90;;;;;;;49.88;nan;95497.53;5050584;28;20218;-64
2023/07/09 08:17:13;;;;;;;3.90;3.60;;;;;;;50.02;nan;95511.97;5050440;28;20664;-65
2023/07/09 08:19:47;;;;;;;4.65;3.35;;;;;;;49.32;nan;95503.50;5050339;28;20241;-65
2023/07/09 08:22:15;;;;;;;3.13;2.92;;;;;;;49.45;nan;95499.34;5050101;28;20314;-65
2023/07/09 08:24:41;;;;;;;4.18;3.88;;;;;;;49.81;nan;95494.38;5049731;28;20691;-64
2023/07/09 08:27:09;;;;;;;3.60;3.33;;;;;;;49.54;nan;95490.31;5050152;28;20762;-65
2023/07/09 08:29:36;;;;;;;3.70;3.50;;;;;;;48.71;nan;95487.81;5050285;28;20312;-65
2023/07/09 08:32:05;;;;;;;8.10;3.05;;;;;;;48.32;nan;95491.25;5049724;28;20415;-65
2023/07/09 08:34:33;;;;;;;3.30;3.10;;;;;;;49.23;nan;95487.16;5049985;28;20619;-65
2023/07/09 08:36:59;;;;;;;6.40;3.45;;;;;;;48.76;nan;95490.44;5050207;28;20228;-64
2023/07/09 08:39:26;;;;;;;3.47;3.28;;;;;;;49.11;nan;95491.28;5050144;28;20699;-66
2023/07/09 08:41:58;;;;;;;4.20;3.40;;;;;;;49.41;nan;95485.59;5048408;28;20202;-65
2023/07/09 08:44:51;;;;;;;3.38;3.03;;;;;;;48.91;nan;95482.28;5048547;28;20198;-64
2023/07/09 08:47:28;;;;;;;3.53;3.33;;;;;;;49.09;nan;95483.47;5044807;28;20230;-65
2023/07/09 08:49:58;;;;;;;3.67;3.25;;;;;;;47.96;nan;95487.13;5048306;28;20198;-64
2023/07/09 08:52:29;;;;;;;2.95;2.75;;;;;;;47.88;nan;95485.00;5048133;28;20250;-64
2023/07/09 08:54:56;;;;;;;3.40;3.20;;;;;;;;;;5048824;28;20226;-64
2023/07/09 08:57:26;;;;;;;4.30;3.20;;;;;;;47.83;nan;95493.09;5049686;28;20287;-65
2023/07/09 08:59:55;;;;;;;3.10;2.90;;;;;;;;;;5049536;28;20753;-64
2023/07/09 09:02:31;;;;;;;3.53;3.22;;;;;;;46.59;nan;95506.03;5049846;28;20248;-64
2023/07/09 09:04:58;;;;;;;3.25;3.05;;;;;;;46.17;nan;95493.56;5049643;28;20265;-65
2023/07/09 09:07:34;;;;;;;3.47;3.17;;;;;;;46.56;nan;95501.19;5049252;28;20229;-64
2023/07/09 09:10:03;;;;;;;3.05;2.85;;;;;;;47.03;nan;95495.59;5049776;28;20275;-64
2023/07/09 09:12:34;;;;;;;3.70;3.15;;;;;;;46.81;nan;95490.47;5049882;28;20198;-64
2023/07/09 09:15:06;;;;;;;4.35;3.13;;;;;;;46.75;nan;95494.25;5049343;28;20288;-64
2023/07/09 09:17:37;;;;;;;3.58;3.28;;;;;;;47.00;nan;95494.28;5049570;28;20209;-66
2023/07/09 09:20:10;;;;;;;4.82;2.70;;;;;;;47.08;nan;95498.31;5047462;28;20639;-64
2023/07/09 09:22:44;;;;;;;4.32;3.35;;;;;;;46.05;nan;95490.28;5048929;28;20261;-64
2023/07/09 09:25:22;;;;;;;3.33;3.13;;;;;;;45.65;nan;95496.28;5049261;28;20526;-64
2023/07/09 09:27:48;;;;;;;3.55;3.35;;;;;;;44.52;nan;95476.84;5049238;28;20241;-63
2023/07/09 09:30:17;;;;;;;4.65;4.05;;;;;;;43.27;nan;95491.88;5049312;28;20230;-63
2023/07/09 09:32:48;;;;;;;3.70;3.25;;;;;;;42.67;nan;95489.78;5048637;28;20256;-65
2023/07/09 09:35:17;;;;;;;3.83;3.55;;;;;;;41.30;nan;95492.31;5049265;28;20249;-65
2023/07/09 09:37:52;;;;;;;3.83;3.53;;;;;;;40.30;nan;95453.03;5049178;28;20203;-66
2023/07/09 09:40:22;;;;;;;3.60;3.30;;;;;;;40.10;nan;95492.41;5048680;28;20252;-64
2023/07/09 09:42:48;;;;;;;4.50;4.10;;;;;;;39.70;nan;95482.22;5048213;28;20211;-66
2023/07/09 09:45:21;;;;;;;3.10;2.90;;;;;;;38.59;nan;95490.16;5048776;28;20214;-64
2023/07/09 09:47:49;;;;;;;3.30;3.10;;;;;;;37.27;nan;95495.09;5048877;28;20661;-63
2023/07/09 09:50:17;;;;;;;3.75;3.45;;;;;;;36.03;nan;95486.72;5048588;28;20231;-65
2023/07/09 09:52:45;;;;;;;3.53;3.33;;;;;;;;;;5049124;28;20258;-66
2023/07/09 09:55:12;;;;;;;4.15;3.95;;;;;;;;;;5048739;28;20230;-63
2023/07/09 09:57:39;;;;;;;6.45;3.60;;;;;;;;;;5048901;28;20211;-64
2023/07/09 10:00:07;;;;;;;3.85;3.65;;;;;;;;;;5048592;28;20231;-63
2023/07/09 10:02:40;;;;;;;3.42;3.17;;;;;;;;;;5048789;28;20203;-65
2023/07/09 10:05:13;;;;;;;4.07;3.47;;;;;;;30.23;nan;95484.59;5047909;28;20214;-64
2023/07/09 10:07:44;;;;;;;3.60;3.40;;;;;;;;;;5049066;28;20252;-65
2023/07/09 10:10:13;;;;;;;4.45;3.67;;;;;;;;;;5048094;28;20203;-65
2023/07/09 10:12:49;;;;;;;3.88;3.63;;;;;;;29.58;nan;95454.75;5048021;28;20697;-65
2023/07/09 10:15:19;;;;;;;3.13;2.92;;;;;;;;;;5048173;28;20252;-64
2023/07/09 10:17:51;;;;;;;7.80;3.72;;;;;;;;;;5048376;28;20632;-65
2023/07/09 10:20:24;;;;;;;3.70;3.40;;;;;;;;;;5048220;28;20231;-65
2023/07/09 10:22:53;;;;;;;3.95;3.45;;;;;;;;;;5048531;28;20230;-64
2023/07/09 10:25:26;;;;;;;3.97;3.78;;;;;;;;;;5047284;28;20207;-61
2023/07/09 10:28:01;;;;;;;3.10;2.90;;;;;;;;;;5048076;28;20215;-64
2023/07/09 10:30:36;;;;;;;3.65;3.10;;;;;;;;;;5047484;28;20257;-65
2023/07/09 10:33:08;;;;;;;4.15;3.70;;;;;;;;;;5047929;28;20202;-64
2023/07/09 10:35:38;;;;;;;3.05;2.88;;;;;;;;;;5046549;28;20328;-65
2023/07/09 10:38:19;;;;;;;4.28;3.58;;;;;;;;;;5047983;28;20327;-64
2023/07/09 10:40:48;;;;;;;4.00;3.70;;;;;;;;;;5046992;28;20199;-63
2023/07/09 10:43:17;;;;;;;4.38;3.97;;;;;;;;;;5045998;28;20268;-65
2023/07/09 10:45:46;;;;;;;3.92;3.72;;;;;;;;;;5045767;28;20226;-64
2023/07/09 10:48:14;;;;;;;5.75;3.42;;;;;;;;;;5045663;28;20199;-65
2023/07/09 10:50:42;;;;;;;3.83;3.47;;;;;;;;;;5045023;28;20294;-65
2023/07/09 10:53:12;;;;;;;3.97;3.55;;;;;;;;;;5045707;28;20310;-63
2023/07/09 10:55:42;;;;;;;7.43;3.17;;;;;;;;;;5045427;28;20620;-64
2023/07/09 10:58:16;;;;;;;3.58;3.28;;;;;;;;;;5047066;28;20211;-64
2023/07/09 11:00:43;;;;;;;3.22;2.85;;;;;;;;;;5047440;28;20194;-64
2023/07/09 11:03:16;;;;;;;3.63;3.33;;;;;;;;;;5047027;28;20295;-63
2023/07/09 11:05:45;;;;;;;3.80;3.58;;;;;;;;;;5046778;28;20692;-64
2023/07/09 11:08:13;;;;;;;3.72;3.05;;;;;;;;;;5047331;28;20878;-63
2023/07/09 11:10:42;;;;;;;3.63;3.30;;;;;;;;;;5046914;28;20246;-63
2023/07/09 11:13:12;;;;;;;3.85;3.63;;;;;;;;;;5047017;28;20269;-65
2023/07/09 11:15:39;;;;;;;5.25;2.85;;;;;;;;;;5047229;28;20254;-65
2023/07/09 11:18:06;;;;;;;3.15;2.92;;;;;;;;;;5046878;28;20233;-64
2023/07/09 11:20:34;;;;;;;2.85;2.72;;;;;;;;;;5046968;28;20691;-63
2023/07/09 11:23:04;;;;;;;5.07;2.60;;;;;;;;;;5046675;28;20203;-64
2023/07/09 11:25:32;;;;;;;6.25;3.00;;;;;;;;;;5046574;28;20662;-64
2023/07/09 11:28:05;;;;;;;3.08;2.88;;;;;;;;;;5046585;28;20290;-64
2023/07/09 11:30:32;;;;;;;4.20;3.55;;;;;;;;;;5046901;28;20261;-64
2023/07/09 11:32:59;;;;;;;3.70;3.50;;;;;;;;;;5046770;28;20700;-64
2023/07/09 11:35:27;;;;;;;5.93;3.15;;;;;;;;;;5046666;28;20324;-63
2023/07/09 11:37:54;;;;;;;3.15;2.95;;;;;;;;;;5046698;28;20651;-64
2023/07/09 11:40:22;;;;;;;5.72;3.10;;;;;;;;;;5046855;28;20198;-63
2023/07/09 11:42:50;;;;;;;3.50;3.10;;;;;;;;;;5045762;28;20715;-65
2023/07/09 11:45:18;;;;;;;4.60;2.90;;;;;;;;;;5046523;28;20211;-65
2023/07/09 11:47:47;;;;;;;3.67;3.05;;;;;;;;;;5046124;28;20296;-64
2023/07/09 11:50:21;;;;;;;3.08;2.85;;;;;;;;;;5046012;28;20264;-65
2023/07/09 11:52:49;;;;;;;3.28;3.08;;;;;;;;;;5046964;28;20244;-64
2023/07/09 11:55:28;;;;;;;3.33;3.00;;;;;;;;;;5046402;28;20246;-65
2023/07/09 11:57:55;;;;;;;3.75;3.45;;;;;;;;;;5046518;28;20681;-65
2023/07/09 12:00:22;;;;;;;4.45;3.55;;;;;;;;;;5047043;28;20643;-66
2023/07/09 12:02:48;;;;;;;3.05;2.85;;;;;;;;;;5046602;28;20227;-64
2023/07/09 12:05:18;;;;;;;3.65;3.35;;;;;;;;;;5046751;28;20292;-64
2023/07/09 12:07:45;;;;;;;3.47;3.28;;;;;;;;;;5046361;28;20206;-63
2023/07/09 12:10:18;;;;;;;4.45;3.40;;;;;;;;;;5046051;28;20273;-64
2023/07/09 12:12:46;;;;;;;15.10;11.77;;;;;;;;;;5045879;28;20206;-63
2023/07/09 12:15:16;;;;;;;12.60;9.13;;;;;;;;;;5046726;28;20231;-64
2023/07/09 12:17:43;;;;;;;9.00;6.25;;;;;;;;;;5046403;28;20630;-63
2023/07/09 12:20:11;;;;;;;6.07;5.57;;;;;;;;;;5046253;28;20230;-64
2023/07/09 12:22:37;;;;;;;5.35;3.97;;;;;;;;;;5046125;28;20194;-64
2023/07/09 12:25:11;;;;;;;4.03;3.63;;;;;;;;;;5046270;28;20207;-65
2023/07/09 12:27:37;;;;;;;3.50;3.20;;;;;;;;;;5045802;28;20252;-64
2023/07/09 12:30:12;;;;;;;3.25;3.05;;;;;;;;;;5047031;28;20213;-65
2023/07/09 12:32:44;;;;;;;3.22;2.97;;;;;;;;;;5046218;28;20285;-64
2023/07/09 12:35:13;;;;;;;6.20;3.17;;;;;;;;;;5046496;28;20292;-63
2023/07/09 12:37:39;;;;;;;3.35;3.10;;;;;;;;;;5046175;28;20203;-62
2023/07/09 12:40:12;;;;;;;6.13;3.40;;;;;;;;;;5046736;28;20559;-63
2023/07/09 12:42:39;;;;;;;7.60;2.75;;;;;;;;;;5044414;28;20712;-64
2023/07/09 12:45:10;;;;;;;8.25;3.10;;;;;;;;;;5044590;28;20481;-64
2023/07/09 12:47:36;;;;;;;3.83;3.22;;;;;;;;;;5044606;28;20658;-62
2023/07/09 12:50:04;;;;;;;3.17;2.85;;;;;;;;;;5045395;28;20741;-64
2023/07/09 12:52:31;;;;;;;3.72;3.30;;;;;;;;;;5046218;28;20238;-64
2023/07/09 12:54:58;;;;;;;6.60;2.78;;;;;;;;;;5049601;28;20291;-64
2023/07/09 12:57:25;;;;;;;3.03;2.85;;;;;;;;;;5050235;28;20241;-64
2023/07/09 12:59:51;;;;;;;3.97;2.80;;;;;;;;;;5049288;28;20203;-63
2023/07/09 13:02:20;;;;;;;3.00;2.80;;;;;;;;;;5049061;28;20203;-64
2023/07/09 13:04:47;;;;;;;2.92;2.63;;;;;;;;;;5047680;28;20294;-63
2023/07/09 13:07:35;;;;;;;3.28;2.50;;;;;;;;;;5047975;28;20298;-63
2023/07/09 13:10:05;;;;;;;2.92;2.72;;;;;;;;;;5045245;28;20211;-64
2023/07/09 13:12:33;;;;;;;3.13;2.92;;;;;;;;;;5047843;28;20261;-63
2023/07/09 13:14:59;;;;;;;3.85;2.50;;;;;;;;;;5047174;28;20318;-64
2023/07/09 13:17:30;;;;;;;2.90;2.70;;;;;;;;;;5048288;28;20207;-63
2023/07/09 13:19:56;;;;;;;3.33;3.13;;;;;;;;;;5048934;28;20261;-61
2023/07/09 13:22:23;;;;;;;6.35;2.60;;;;;;;;;;5049679;28;20199;-62
2023/07/09 13:24:50;;;;;;;3.30;3.00;;;;;;;;;;5048947;28;20224;-64
2023/07/09 13:27:17;;;;;;;3.00;2.75;;;;;;;;;;5049330;28;20604;-64
2023/07/09 13:29:43;;;;;;;6.93;2.72;;;;;;;;;;5049019;28;20248;-64
2023/07/09 13:32:10;;;;;;;3.08;2.70;;;;;;;;;;5049013;28;20286;-63
2023/07/09 13:34:39;;;;;;;4.97;3.25;;;;;;;;;;5049395;28;20199;-64
2023/07/09 13:37:06;;;;;;;3.90;3.58;;;;;;;;;;5048640;28;20693;-65
2023/07/09 13:39:33;;;;;;;4.43;3.03;;;;;;;;;;5048712;28;20708;-63
2023/07/09 13:42:01;;;;;;;4.00;2.67;;;;;;;;;;5048537;28;20268;-64
2023/07/09 13:44:28;;;;;;;3.45;3.00;;;;;;;;;;5048468;28;20203;-64
2023/07/09 13:46:55;;;;;;;3.20;2.90;;;;;;;;;;5048796;28;20199;-65
2023/07/09 13:49:23;;;;;;;3.22;3.03;;;;;;;;;;5049166;28;20511;-63
2023/07/09 13:51:53;;;;;;;3.42;3.15;;;;;;;;;;5048165;28;20509;-64
2023/07/09 13:54:21;;;;;;;4.63;3.17;;;;;;;;;;5049144;28;20195;-64
2023/07/09 13:56:49;;;;;;;4.05;3.00;;;;;;;;;;5047724;28;20223;-65
2023/07/09 13:59:16;;;;;;;3.10;2.78;;;;;;;;;;5048875;28;20890;-64
2023/07/09 14:01:44;;;;;;;5.60;3.15;;;;;;;26.86;nan;95429.97;5047929;28;20688;-63